createdAt,value
2023-04-16T00:00:03.589Z,92.29
2023-04-16T00:03:13.702Z,92.21
2023-04-16T00:06:16.557Z,92.30
2023-04-16T00:09:19.276Z,92.32
2023-04-16T00:12:23.852Z,92.77
2023-04-16T00:15:26.273Z,93.25
2023-04-16T00:18:38.356Z,93.28
2023-04-16T00:21:41.259Z,93.29
2023-04-16T00:24:43.724Z,93.80
2023-04-16T00:27:46.289Z,93.79
2023-04-16T00:30:48.808Z,93.99
2023-04-16T00:33:51.612Z,94.11
2023-04-16T00:36:54.107Z,94.14
2023-04-16T00:39:56.600Z,94.05
2023-04-16T00:42:59.462Z,94.87
2023-04-16T00:46:07.068Z,95.03
2023-04-16T00:49:10.580Z,95.28
2023-04-16T00:52:13.354Z,95.38
2023-04-16T00:55:18.980Z,95.45
2023-04-16T00:58:22.013Z,95.35
2023-04-16T01:01:25.138Z,95.53
2023-04-16T01:04:29.376Z,95.54
2023-04-16T01:07:32.246Z,95.42
2023-04-16T01:10:34.829Z,95.77
2023-04-16T01:13:39.479Z,95.52
2023-04-16T01:16:42.239Z,95.24
2023-04-16T01:19:44.970Z,95.48
2023-04-16T01:22:47.505Z,95.68
2023-04-16T01:25:50.087Z,95.55
2023-04-16T01:28:52.581Z,96.19
2023-04-16T01:31:55.137Z,96.79
2023-04-16T01:35:03.950Z,97.06
2023-04-16T01:38:08.096Z,96.83
2023-04-16T01:41:10.757Z,97.04
2023-04-16T01:44:13.702Z,96.65
2023-04-16T01:47:18.449Z,96.71
2023-04-16T01:50:21.900Z,96.06
2023-04-16T01:53:24.534Z,96.18
2023-04-16T01:56:27.140Z,96.28
2023-04-16T01:59:29.747Z,96.15
2023-04-16T02:02:32.739Z,96.42
2023-04-16T02:05:35.316Z,96.42
2023-04-16T02:08:37.927Z,95.96
2023-04-16T02:11:40.511Z,96.23
2023-04-16T02:14:43.727Z,96.36
2023-04-16T02:17:48.988Z,96.65
2023-04-16T02:20:52.488Z,96.31
2023-04-16T02:23:55.046Z,96.91
2023-04-16T02:27:02.772Z,96.85
2023-04-16T02:30:06.189Z,97.01
2023-04-16T02:33:12.059Z,97.03
2023-04-16T02:36:18.995Z,96.88
2023-04-16T02:39:22.218Z,96.32
2023-04-16T02:42:24.912Z,96.46
2023-04-16T02:45:28.305Z,96.37
2023-04-16T02:48:30.994Z,96.08
2023-04-16T02:51:33.842Z,96.05
2023-04-16T02:54:36.427Z,96.39
2023-04-16T02:57:38.962Z,96.34
2023-04-16T03:00:41.428Z,96.79
2023-04-16T03:03:43.942Z,96.42
2023-04-16T03:06:46.416Z,96.22
2023-04-16T03:09:49.028Z,96.11
2023-04-16T03:12:52.023Z,95.91
2023-04-16T03:15:54.610Z,96.11
2023-04-16T03:18:57.482Z,96.15
2023-04-16T03:22:00.657Z,96.18
2023-04-16T03:25:03.599Z,95.99
2023-04-16T03:28:07.083Z,96.19
2023-04-16T03:31:10.576Z,96.50
2023-04-16T03:34:13.858Z,96.61
2023-04-16T03:37:17.241Z,96.62
2023-04-16T03:40:19.878Z,96.17
2023-04-16T03:43:22.530Z,96.54
2023-04-16T03:46:25.487Z,96.47
2023-04-16T03:49:28.766Z,96.60
2023-04-16T03:52:34.357Z,96.65
2023-04-16T03:55:36.975Z,97.12
2023-04-16T03:58:39.642Z,97.08
2023-04-16T04:01:44.429Z,96.83
2023-04-16T04:04:47.564Z,97.04
2023-04-16T04:07:50.620Z,96.75
2023-04-16T04:10:53.213Z,96.89
2023-04-16T04:13:58.263Z,96.74
2023-04-16T04:17:01.837Z,96.52
2023-04-16T04:20:04.891Z,96.25
2023-04-16T04:23:07.795Z,96.01
2023-04-16T04:26:12.131Z,95.61
2023-04-16T04:29:15.711Z,95.74
2023-04-16T04:32:18.470Z,95.19
2023-04-16T04:35:24.226Z,94.28
2023-04-16T04:38:27.160Z,94.43
2023-04-16T04:41:30.055Z,94.64
2023-04-16T04:44:32.661Z,95.07
2023-04-16T04:47:35.702Z,94.80
2023-04-16T04:50:38.284Z,94.87
2023-04-16T04:53:40.937Z,94.41
2023-04-16T04:56:45.892Z,94.56
2023-04-16T04:59:49.824Z,94.41
2023-04-16T05:02:52.665Z,94.16
2023-04-16T05:05:55.180Z,94.08
2023-04-16T05:08:57.691Z,94.47
2023-04-16T05:12:00.258Z,94.55
2023-04-16T05:15:02.771Z,94.40
2023-04-16T05:18:05.681Z,93.75
2023-04-16T05:21:08.836Z,94.37
2023-04-16T05:24:12.561Z,94.99
2023-04-16T05:27:16.938Z,94.56
2023-04-16T05:30:19.582Z,94.62
2023-04-16T05:33:22.122Z,94.56
2023-04-16T05:36:24.668Z,94.29
2023-04-16T05:39:27.183Z,93.75
2023-04-16T05:42:29.752Z,93.27
2023-04-16T05:45:33.557Z,92.74
2023-04-16T05:48:36.396Z,93.36
2023-04-16T05:51:39.049Z,92.74
2023-04-16T05:54:41.528Z,92.48
2023-04-16T05:57:43.993Z,92.27
2023-04-16T06:00:46.743Z,91.95
2023-04-16T06:03:49.902Z,91.35
2023-04-16T06:06:52.448Z,91.10
2023-04-16T06:09:55.614Z,90.89
2023-04-16T06:12:59.299Z,90.10
2023-04-16T06:16:01.861Z,90.16
2023-04-16T06:19:04.590Z,89.70
2023-04-16T06:22:07.950Z,89.75
2023-04-16T06:25:10.601Z,89.49
2023-04-16T06:28:13.042Z,89.57
2023-04-16T06:31:15.727Z,89.06
2023-04-16T06:34:18.349Z,87.82
2023-04-16T06:37:21.022Z,86.60
2023-04-16T06:40:23.695Z,86.14
2023-04-16T06:43:26.446Z,85.78
2023-04-16T06:46:28.901Z,85.58
2023-04-16T06:49:31.384Z,85.80
2023-04-16T06:52:34.046Z,85.50
2023-04-16T06:55:36.592Z,86.34
2023-04-16T06:58:39.086Z,84.98
2023-04-16T07:01:41.813Z,84.39
2023-04-16T07:04:44.475Z,85.03
2023-04-16T07:07:46.920Z,83.19
2023-04-16T07:10:49.465Z,83.26
2023-04-16T07:13:53.892Z,82.54
2023-04-16T07:16:56.591Z,81.94
2023-04-16T07:19:59.240Z,82.39
2023-04-16T07:23:02.149Z,82.07
2023-04-16T07:26:04.785Z,80.79
2023-04-16T07:29:07.666Z,80.81
2023-04-16T07:32:10.383Z,81.07
2023-04-16T07:35:13.057Z,81.25
2023-04-16T07:38:16.562Z,82.34
2023-04-16T07:41:19.525Z,81.76
2023-04-16T07:44:22.047Z,80.94
2023-04-16T07:47:26.481Z,80.02
2023-04-16T07:50:29.222Z,79.20
2023-04-16T07:53:31.865Z,79.54
2023-04-16T07:56:34.491Z,78.01
2023-04-16T07:59:36.977Z,77.49
2023-04-16T08:02:39.798Z,76.71
2023-04-16T08:05:42.409Z,76.56
2023-04-16T08:08:45.672Z,77.12
2023-04-16T08:11:50.029Z,74.66
2023-04-16T08:14:53.781Z,74.35
2023-04-16T08:17:56.549Z,73.75
2023-04-16T08:20:59.166Z,72.92
2023-04-16T08:24:01.714Z,72.61
2023-04-16T08:27:17.315Z,73.19
2023-04-16T08:30:22.021Z,73.42
2023-04-16T08:33:24.734Z,72.27
2023-04-16T08:36:27.907Z,71.37
2023-04-16T08:39:30.566Z,70.31
2023-04-16T08:42:40.671Z,69.79
2023-04-16T08:45:44.116Z,68.49
2023-04-16T08:48:50.166Z,68.70
2023-04-16T08:51:54.943Z,67.76
2023-04-16T08:55:00.533Z,68.37
2023-04-16T08:58:09.599Z,66.97
2023-04-16T09:01:12.298Z,66.29
2023-04-16T09:04:16.501Z,65.94
2023-04-16T09:07:21.234Z,66.34
2023-04-16T09:10:27.125Z,64.51
2023-04-16T09:13:32.081Z,64.22
2023-04-16T09:16:35.669Z,63.07
2023-04-16T09:19:38.288Z,63.67
2023-04-16T09:22:41.645Z,63.31
2023-04-16T09:25:44.385Z,62.75
2023-04-16T09:28:50.906Z,62.57
2023-04-16T09:32:07.562Z,61.32
2023-04-16T09:35:10.395Z,62.69
2023-04-16T09:38:12.923Z,61.16
2023-04-16T09:41:18.638Z,60.03
2023-04-16T09:44:21.093Z,60.18
2023-04-16T09:47:24.735Z,60.58
2023-04-16T09:50:27.276Z,61.08
2023-04-16T09:53:31.707Z,60.03
2023-04-16T09:56:39.346Z,59.49
2023-04-16T09:59:41.919Z,59.50
2023-04-16T10:02:44.587Z,58.58
2023-04-16T10:05:47.099Z,58.53
2023-04-16T10:08:51.785Z,58.69
2023-04-16T10:11:54.525Z,58.89
2023-04-16T10:14:57.042Z,58.94
2023-04-16T10:18:00.487Z,57.79
2023-04-16T10:21:03.608Z,56.37
2023-04-16T10:24:08.327Z,55.90
2023-04-16T10:27:10.923Z,56.18
2023-04-16T10:30:15.678Z,56.83
2023-04-16T10:33:22.006Z,57.51
2023-04-16T10:36:26.676Z,55.64
2023-04-16T10:39:29.775Z,55.51
2023-04-16T10:42:32.489Z,54.67
2023-04-16T10:45:38.620Z,54.76
2023-04-16T10:48:49.637Z,56.32
2023-04-16T10:52:20.256Z,55.60
2023-04-16T10:55:25.059Z,55.90
2023-04-16T10:58:29.116Z,54.10
2023-04-16T11:01:37.378Z,53.26
2023-04-16T11:04:43.273Z,52.40
2023-04-16T11:07:49.852Z,51.05
2023-04-16T11:10:53.745Z,51.52
2023-04-16T11:13:57.170Z,50.13
2023-04-16T11:17:03.870Z,48.48
2023-04-16T11:20:19.300Z,48.45
2023-04-16T11:23:22.868Z,49.51
2023-04-16T11:26:29.510Z,47.70
2023-04-16T11:29:32.148Z,48.34
2023-04-16T11:32:36.616Z,47.39
2023-04-16T11:35:39.803Z,46.62
2023-04-16T11:38:43.083Z,47.76
2023-04-16T11:41:52.564Z,46.74
2023-04-16T11:44:56.389Z,45.66
2023-04-16T11:47:58.946Z,46.99
2023-04-16T11:51:01.502Z,45.15
2023-04-16T11:54:04.193Z,46.40
2023-04-16T11:57:06.863Z,46.88
2023-04-16T12:00:13.050Z,45.81
2023-04-16T12:03:16.084Z,45.77
2023-04-16T12:06:18.907Z,45.21
2023-04-16T12:09:26.373Z,44.56
2023-04-16T12:12:31.918Z,45.37
2023-04-16T12:15:52.872Z,44.05
2023-04-16T12:19:00.240Z,44.71
2023-04-16T12:22:02.836Z,46.32
2023-04-16T12:25:16.571Z,45.97
2023-04-16T12:28:30.014Z,44.85
2023-04-16T12:31:39.592Z,44.94
2023-04-16T12:34:51.376Z,45.51
2023-04-16T12:37:53.815Z,46.31
2023-04-16T12:40:57.778Z,46.50
2023-04-16T12:44:12.107Z,46.42
2023-04-16T12:47:14.655Z,46.45
2023-04-16T12:50:17.324Z,45.80
2023-04-16T12:53:19.945Z,46.06
2023-04-16T12:56:22.437Z,46.70
2023-04-16T12:59:24.952Z,46.18
2023-04-16T13:02:27.750Z,46.04
2023-04-16T13:05:30.488Z,45.78
2023-04-16T13:08:33.426Z,45.29
2023-04-16T13:11:35.930Z,45.85
2023-04-16T13:14:39.250Z,46.51
2023-04-16T13:17:41.761Z,44.85
2023-04-16T13:20:44.597Z,44.77
2023-04-16T13:23:47.163Z,42.85
2023-04-16T13:26:52.151Z,41.16
2023-04-16T13:29:54.910Z,39.90
2023-04-16T13:32:57.543Z,40.50
2023-04-16T13:36:00.442Z,40.14
2023-04-16T13:39:05.420Z,35.78
2023-04-16T13:42:08.604Z,34.76
2023-04-16T13:45:11.454Z,32.96
2023-04-16T13:48:14.337Z,32.53
2023-04-16T13:51:17.042Z,30.59
2023-04-16T13:54:20.103Z,30.56
2023-04-16T13:57:22.853Z,28.06
2023-04-16T14:00:26.498Z,29.78
2023-04-16T14:03:29.426Z,28.98
2023-04-16T14:06:33.154Z,30.92
2023-04-16T14:09:36.088Z,32.17
2023-04-16T14:12:39.290Z,32.55
2023-04-16T14:15:41.856Z,33.70
2023-04-16T14:18:44.707Z,32.83
2023-04-16T14:21:47.387Z,33.11
2023-04-16T14:24:49.895Z,33.53
2023-04-16T14:27:52.993Z,32.26
2023-04-16T14:30:55.913Z,31.67
2023-04-16T14:33:58.644Z,30.99
2023-04-16T14:37:01.398Z,29.97
2023-04-16T14:40:08.069Z,28.52
2023-04-16T14:43:10.973Z,28.04
2023-04-16T14:46:13.517Z,27.99
2023-04-16T14:49:16.843Z,27.43
2023-04-16T14:52:19.777Z,27.64
2023-04-16T14:55:22.363Z,32.33
2023-04-16T14:58:26.844Z,32.39
2023-04-16T15:01:30.130Z,34.20
2023-04-16T15:04:33.090Z,35.43
2023-04-16T15:07:36.937Z,37.43
2023-04-16T15:10:39.501Z,38.80
2023-04-16T15:13:42.068Z,39.83
2023-04-16T15:16:48.859Z,41.20
2023-04-16T15:19:52.353Z,41.89
2023-04-16T15:22:54.916Z,41.43
2023-04-16T15:25:58.383Z,40.63
2023-04-16T15:29:01.585Z,39.99
2023-04-16T15:32:04.640Z,40.51
2023-04-16T15:35:09.136Z,41.00
2023-04-16T15:38:13.376Z,40.18
2023-04-16T15:41:15.936Z,39.82
2023-04-16T15:44:18.513Z,40.74
2023-04-16T15:47:21.331Z,40.39
2023-04-16T15:50:25.763Z,40.54
2023-04-16T15:53:28.695Z,40.89
2023-04-16T15:56:32.255Z,40.86
2023-04-16T15:59:34.871Z,40.58
2023-04-16T16:02:38.260Z,40.82
2023-04-16T16:05:41.381Z,40.56
2023-04-16T16:08:44.411Z,40.79
2023-04-16T16:11:47.379Z,41.80
2023-04-16T16:14:49.896Z,42.81
2023-04-16T16:17:53.561Z,43.87
2023-04-16T16:20:57.765Z,44.20
2023-04-16T16:24:00.984Z,45.34
2023-04-16T16:27:03.910Z,45.16
2023-04-16T16:30:07.763Z,46.46
2023-04-16T16:33:11.538Z,46.14
2023-04-16T16:36:14.338Z,47.21
2023-04-16T16:39:17.210Z,46.80
2023-04-16T16:42:23.216Z,47.27
2023-04-16T16:45:27.255Z,47.53
2023-04-16T16:48:31.057Z,47.84
2023-04-16T16:51:36.057Z,47.87
2023-04-16T16:54:38.694Z,48.16
2023-04-16T16:57:41.904Z,48.34
2023-04-16T17:00:44.862Z,48.86
2023-04-16T17:03:48.158Z,49.51
2023-04-16T17:06:51.168Z,49.96
2023-04-16T17:09:54.396Z,49.69
2023-04-16T17:12:57.282Z,50.01
2023-04-16T17:16:00.039Z,50.53
2023-04-16T17:19:02.901Z,50.51
2023-04-16T17:22:05.995Z,50.46
2023-04-16T17:25:09.103Z,51.28
2023-04-16T17:28:11.790Z,51.86
2023-04-16T17:31:15.242Z,52.20
2023-04-16T17:34:20.500Z,51.81
2023-04-16T17:37:23.525Z,51.54
2023-04-16T17:40:26.398Z,52.51
2023-04-16T17:43:29.303Z,52.13
2023-04-16T17:46:32.324Z,52.71
2023-04-16T17:49:35.188Z,52.49
2023-04-16T17:52:38.170Z,52.40
2023-04-16T17:55:42.800Z,51.98
2023-04-16T17:58:46.014Z,52.21
2023-04-16T18:01:49.821Z,52.06
2023-04-16T18:04:52.846Z,52.33
2023-04-16T18:07:55.669Z,53.10
2023-04-16T18:10:58.627Z,53.30
2023-04-16T18:14:01.679Z,53.24
2023-04-16T18:17:06.695Z,53.63
2023-04-16T18:20:11.690Z,54.37
2023-04-16T18:23:14.496Z,55.63
2023-04-16T18:26:20.478Z,56.01
2023-04-16T18:29:25.570Z,56.44
2023-04-16T18:32:31.180Z,56.45
2023-04-16T18:35:34.422Z,56.68
2023-04-16T18:38:43.726Z,56.74
2023-04-16T18:41:56.222Z,56.18
2023-04-16T18:44:59.451Z,56.20
2023-04-16T18:48:04.232Z,56.15
2023-04-16T18:51:08.027Z,55.88
2023-04-16T18:54:10.555Z,56.51
2023-04-16T18:57:13.377Z,56.54
2023-04-16T19:00:16.694Z,56.29
2023-04-16T19:03:20.229Z,56.55
2023-04-16T19:06:23.057Z,56.03
2023-04-16T19:09:27.307Z,56.59
2023-04-16T19:12:31.639Z,56.51
2023-04-16T19:15:35.023Z,56.17
2023-04-16T19:18:39.158Z,55.77
2023-04-16T19:21:42.182Z,55.53
2023-04-16T19:24:45.036Z,55.33
2023-04-16T19:27:48.336Z,55.04
2023-04-16T19:30:52.671Z,55.85
2023-04-16T19:33:55.934Z,55.81
2023-04-16T19:36:58.493Z,56.12
2023-04-16T19:40:02.061Z,55.97
2023-04-16T19:43:04.969Z,56.16
2023-04-16T19:46:08.539Z,55.82
2023-04-16T19:49:11.636Z,56.31
2023-04-16T19:52:16.784Z,56.55
2023-04-16T19:55:20.134Z,56.55
2023-04-16T19:58:23.318Z,56.38
2023-04-16T20:01:26.152Z,55.93
2023-04-16T20:04:29.485Z,55.55
2023-04-16T20:07:32.286Z,55.52
2023-04-16T20:10:35.234Z,55.44
2023-04-16T20:13:38.168Z,54.98
2023-04-16T20:16:41.011Z,55.03
2023-04-16T20:19:47.480Z,55.03
2023-04-16T20:22:50.729Z,54.96
2023-04-16T20:25:53.286Z,54.93
2023-04-16T20:28:55.976Z,54.69
2023-04-16T20:31:58.439Z,55.09
2023-04-16T20:35:02.080Z,55.06
2023-04-16T20:38:04.825Z,54.81
2023-04-16T20:41:10.649Z,54.62
2023-04-16T20:44:18.235Z,55.13
2023-04-16T20:47:22.200Z,55.20
2023-04-16T20:50:25.603Z,54.94
2023-04-16T20:53:28.846Z,55.60
2023-04-16T20:56:31.408Z,55.29
2023-04-16T20:59:34.473Z,55.01
2023-04-16T21:02:37.265Z,54.89
2023-04-16T21:05:41.925Z,54.73
2023-04-16T21:08:44.569Z,55.48
2023-04-16T21:11:47.608Z,55.96
2023-04-16T21:14:50.096Z,55.65
2023-04-16T21:17:52.833Z,55.62
2023-04-16T21:20:56.180Z,55.69
2023-04-16T21:23:58.902Z,55.81
2023-04-16T21:27:01.815Z,56.10
2023-04-16T21:30:11.308Z,56.17
2023-04-16T21:33:16.159Z,56.80
2023-04-16T21:36:18.609Z,56.78
2023-04-16T21:39:21.934Z,56.65
2023-04-16T21:42:24.385Z,56.88
2023-04-16T21:45:27.652Z,56.73
2023-04-16T21:48:31.466Z,56.78
2023-04-16T21:51:34.124Z,56.88
2023-04-16T21:54:36.557Z,56.90
2023-04-16T21:57:39.940Z,57.34
2023-04-16T22:00:43.679Z,57.28
2023-04-16T22:03:50.609Z,56.90
2023-04-16T22:06:56.361Z,56.90
2023-04-16T22:09:59.008Z,57.08
2023-04-16T22:13:01.840Z,56.74
2023-04-16T22:16:05.897Z,57.10
2023-04-16T22:19:08.880Z,56.65
2023-04-16T22:22:11.436Z,56.22
2023-04-16T22:25:14.090Z,56.97
2023-04-16T22:28:16.661Z,56.49
2023-04-16T22:31:19.251Z,56.44
2023-04-16T22:34:21.801Z,56.48
2023-04-16T22:37:24.512Z,56.37
2023-04-16T22:40:27.202Z,56.76
2023-04-16T22:43:29.922Z,56.93
2023-04-16T22:46:32.651Z,56.72
2023-04-16T22:49:35.216Z,56.70
2023-04-16T22:52:38.062Z,56.37
2023-04-16T22:55:40.540Z,56.38
2023-04-16T22:58:42.982Z,56.16
2023-04-16T23:01:46.105Z,56.36
2023-04-16T23:04:48.792Z,56.21
2023-04-16T23:07:51.363Z,56.07
2023-04-16T23:10:54.216Z,57.18
2023-04-16T23:13:56.859Z,56.69
2023-04-16T23:16:59.536Z,56.58
2023-04-16T23:20:02.382Z,56.80
2023-04-16T23:23:05.029Z,56.42
2023-04-16T23:26:07.524Z,56.45
2023-04-16T23:29:10.382Z,56.72
2023-04-16T23:32:13.008Z,56.88
2023-04-16T23:35:22.913Z,56.69
2023-04-16T23:38:25.552Z,56.68
2023-04-16T23:41:29.563Z,57.16
2023-04-16T23:44:32.082Z,57.13
2023-04-16T23:47:34.624Z,57.07
2023-04-16T23:50:37.144Z,57.36
2023-04-16T23:53:40.911Z,57.48
2023-04-16T23:56:43.562Z,57.56
2023-04-16T23:59:46.082Z,57.58
